الصفحة الرئيسية
METAR-TAF:

METAR-TAF

مطار :

Perry Stokes Airport

Trinidad, كولورادو, الولايات المتحدة

دائرة عرض: 37-16N, خط طول: 104-26W, ارتفاع: 1756 متر

مراقبة الطقس الحالي

تاريخ ووقت الإصدار 1ساعة و 5 دقيقة قبل الساعة 08:54UTC
رياح هادئة
درجة الحرارة 6°درجة مئوية
الرطوبة 75%
ضغط 1017 hPa
الرؤية: 16.1 كم
ملبد بالغيوم على ارتفاع 10000 قدم

METAR: KTAD 220854Z AUTO 00000KT 10SM OVC100 06/02 A3003 RMK AO2 SLP134 T00610022 56018

زمن: 03:59 (09:59 UTC)


TAF: مفقودة

أرصاد الطقس والتوقعات من أكثر من 4000 مطار (تقارير الطقس للمطار METAR والتنبؤ بالطقس بالمطارTAF).

المحطات المتاحة هي النقط الصفراء والحمراء على الخريطة.

حرك المؤشر فوق النقطة لمعرفة اسم المحطة.

ثم انقر لمعرفة أرصاد وتوقعات الطقس.

لتغيير الخارطة: اضغط على الأزرار الخضراء مع رمز الصليب الأسود للتكبير. على الزر الأخضر مع شرطة للتصغير، أو على الأسهم الخضراء للخرائط المجاورة.


METAR-TAF: